Time;durP1;ratioP1;P1;durP2;ratioP2;P2;SDS_P1;SDS_P2;PMS_P1;PMS_P2;Temp;Humidity;BMP_temperature;BMP_pressure;BME280_temperature;BME280_humidity;BME280_pressure;Samples;Min_cycle;Max_cycle;Signal;HPM_P1;HPM_P2
2024/04/18 00:00:33;;;;;;;6.73;2.50;;;;;;;;;;5489993;26;20274;-82
2024/04/18 00:03:00;;;;;;;10.37;2.80;;;;;;;;;;5489903;26;20531;-82
2024/04/18 00:05:28;;;;;;;10.37;2.30;;;;;;;;;;5489164;26;20231;-81
2024/04/18 00:07:55;;;;;;;10.73;2.57;;;;;;;;;;5489141;26;20257;-81
2024/04/18 00:10:24;;;;;;;4.83;2.53;;;;;;;;;;5489488;26;20709;-81
2024/04/18 00:12:50;;;;;;;6.93;2.40;;;;;;;;;;5489601;26;20270;-82
2024/04/18 00:15:20;;;;;;;8.57;2.47;;;;;;;;;;5489295;26;20289;-81
2024/04/18 00:17:49;;;;;;;4.40;1.93;;;;;;;;;;5489324;26;20270;-82
2024/04/18 00:20:18;;;;;;;6.73;2.40;;;;;;;;;;5490198;26;20263;-81
2024/04/18 00:22:44;;;;;;;3.47;2.30;;;;;;;;;;5489067;26;20264;-82
2024/04/18 00:25:13;;;;;;;10.83;2.67;;;;;;;;;;5489204;26;20774;-82
2024/04/18 00:27:39;;;;;;;5.10;2.27;;;;;;;;;;5489068;26;20230;-81
2024/04/18 00:30:09;;;;;;;6.00;2.33;;;;;;;;;;5489531;26;20719;-83
2024/04/18 00:32:35;;;;;;;5.43;2.10;;;;;;;;;;5488709;26;20267;-82
2024/04/18 00:35:07;;;;;;;9.57;2.50;;;;;;;;;;5489258;26;20227;-82
2024/04/18 00:37:33;;;;;;;6.93;2.37;;;;;;;;;;5489181;26;20614;-82
2024/04/18 00:40:02;;;;;;;7.00;2.53;;;;;;;;;;5489130;26;20318;-81
2024/04/18 00:42:28;;;;;;;9.60;2.40;;;;;;;;;;5489570;26;20266;-81
2024/04/18 00:44:57;;;;;;;9.43;2.67;;;;;;;;;;5489018;26;21245;-81
2024/04/18 00:47:23;;;;;;;5.87;2.67;;;;;;;;;;5488862;26;20226;-81
2024/04/18 00:49:52;;;;;;;10.10;2.90;;;;;;;;;;5489244;26;20223;-82
2024/04/18 00:52:21;;;;;;;7.60;2.73;;;;;;;;;;5489384;26;20266;-82
2024/04/18 00:54:50;;;;;;;6.97;2.60;;;;;;;;;;5488910;26;20269;-81
2024/04/18 00:57:17;;;;;;;9.20;3.03;;;;;;;;;;5488541;26;20222;-81
2024/04/18 00:59:47;;;;;;;9.83;3.10;;;;;;;;;;5488928;26;20236;-81
2024/04/18 01:02:13;;;;;;;8.93;3.00;;;;;;;;;;5487782;26;20238;-81
2024/04/18 01:04:42;;;;;;;4.90;2.87;;;;;;;;;;5489360;26;20228;-81
2024/04/18 01:07:08;;;;;;;10.87;3.13;;;;;;;;;;5488875;26;20262;-81
2024/04/18 01:09:40;;;;;;;7.30;2.90;;;;;;;;;;5488908;26;20274;-82
2024/04/18 01:12:06;;;;;;;10.43;3.13;;;;;;;;;;5488631;26;20226;-82
2024/04/18 01:14:35;;;;;;;6.53;2.87;;;;;;;;;;5464715;26;20235;-81
2024/04/18 01:17:02;;;;;;;10.90;2.70;;;;;;;;;;5452284;26;20231;-81
2024/04/18 01:19:31;;;;;;;12.60;3.43;;;;;;;;;;5462254;26;20242;-81
2024/04/18 01:21:57;;;;;;;9.00;2.60;;;;;;;;;;5488662;26;20223;-82
2024/04/18 01:24:26;;;;;;;9.00;3.30;;;;;;;;;;5489265;26;20231;-81
2024/04/18 01:26:55;;;;;;;7.30;2.80;;;;;;;;;;5488457;26;20275;-82
2024/04/18 01:29:26;;;;;;;10.50;3.07;;;;;;;;;;5487902;26;20230;-81
2024/04/18 01:31:52;;;;;;;7.77;2.80;;;;;;;;;;5488179;26;20356;-82
2024/04/18 01:34:21;;;;;;;7.60;2.90;;;;;;;;;;5488508;26;20231;-80
2024/04/18 01:36:48;;;;;;;8.47;3.17;;;;;;;;;;5488494;26;20594;-81
2024/04/18 01:39:17;;;;;;;9.17;3.40;;;;;;;;;;5488377;26;20234;-81
2024/04/18 01:41:43;;;;;;;7.57;2.93;;;;;;;;;;5488610;26;20226;-81
2024/04/18 01:44:15;;;;;;;7.77;2.47;;;;;;;;;;5487419;26;20343;-82
2024/04/18 01:46:42;;;;;;;8.60;3.00;;;;;;;;;;5488045;26;20580;-81
2024/04/18 01:49:10;;;;;;;7.97;2.97;;;;;;;;;;5487776;26;20581;-82
2024/04/18 01:51:38;;;;;;;7.63;2.77;;;;;;;;;;5488685;26;20226;-82
2024/04/18 01:54:08;;;;;;;7.70;2.90;;;;;;;;;;5487598;26;20227;-81
2024/04/18 01:56:34;;;;;;;6.20;2.80;;;;;;;;;;5487824;26;21080;-82
2024/04/18 01:59:04;;;;;;;6.00;3.40;;;;;;;;;;5487194;26;20279;-82
2024/04/18 02:01:33;;;;;;;10.77;2.83;;;;;;;;;;5487939;26;20708;-82
2024/04/18 02:04:01;;;;;;;8.90;2.90;;;;;;;;;;5488059;26;20272;-82
2024/04/18 02:06:28;;;;;;;6.83;2.80;;;;;;;;;;5487681;26;20226;-81
2024/04/18 02:08:56;;;;;;;9.80;3.10;;;;;;;;;;5487305;26;20239;-81
2024/04/18 02:11:23;;;;;;;9.13;3.67;;;;;;;;;;5487957;26;20254;-81
2024/04/18 02:13:51;;;;;;;6.53;3.07;;;;;;;;;;5487179;26;20770;-81
2024/04/18 02:16:18;;;;;;;8.17;2.97;;;;;;;;;;5484564;26;20260;-81
2024/04/18 02:18:49;;;;;;;8.30;3.13;;;;;;;;;;5472757;26;20716;-80
2024/04/18 02:21:16;;;;;;;6.43;2.57;;;;;;;;;;5484688;26;20278;-82
2024/04/18 02:23:45;;;;;;;9.50;2.77;;;;;;;;;;5488038;26;20230;-81
2024/04/18 02:26:11;;;;;;;6.70;2.80;;;;;;;;;;5487900;26;20269;-82
2024/04/18 02:28:40;;;;;;;8.03;2.73;;;;;;;;;;5487190;26;20270;-82
2024/04/18 02:31:06;;;;;;;7.07;2.90;;;;;;;;;;5487472;26;20758;-82
2024/04/18 02:33:35;;;;;;;9.97;3.13;;;;;;;;;;5487103;26;20735;-81
2024/04/18 02:36:04;;;;;;;5.93;2.50;;;;;;;;;;5487316;26;20266;-82
2024/04/18 02:38:33;;;;;;;10.43;2.93;;;;;;;;;;5487322;26;20560;-82
2024/04/18 02:41:02;;;;;;;4.70;2.80;;;;;;;;;;5486919;26;20276;-81
2024/04/18 02:43:31;;;;;;;5.40;2.57;;;;;;;;;;5487527;26;20235;-81
2024/04/18 02:45:57;;;;;;;7.63;3.10;;;;;;;;;;5486901;26;20749;-82
2024/04/18 02:48:26;;;;;;;9.27;3.30;;;;;;;;;;5487653;26;20223;-81
2024/04/18 02:50:53;;;;;;;7.87;3.30;;;;;;;;;;5487188;26;20716;-83
2024/04/18 02:53:24;;;;;;;8.70;3.47;;;;;;;;;;5486695;26;20240;-82
2024/04/18 02:55:50;;;;;;;9.83;4.50;;;;;;;;;;5486627;26;20223;-82
2024/04/18 02:58:19;;;;;;;7.50;4.10;;;;;;;;;;5487175;26;20231;-81
2024/04/18 03:00:45;;;;;;;8.80;4.77;;;;;;;;;;5486787;26;20270;-81
2024/04/18 03:03:14;;;;;;;8.73;3.90;;;;;;;;;;5487349;26;20231;-81
2024/04/18 03:05:41;;;;;;;9.17;4.33;;;;;;;;;;5486701;26;20235;-81
2024/04/18 03:08:09;;;;;;;10.73;4.47;;;;;;;;;;5486768;26;20271;-81
2024/04/18 03:10:47;;;;;;;8.33;3.80;;;;;;;;;;5489954;26;20266;-81
2024/04/18 03:13:16;;;;;;;7.70;4.17;;;;;;;;;;5490286;26;20955;-81
2024/04/18 03:15:44;;;;;;;9.53;3.77;;;;;;;;;;5490500;26;20265;-81
2024/04/18 03:18:13;;;;;;;8.17;3.97;;;;;;;;;;5490155;26;20235;-79
2024/04/18 03:20:40;;;;;;;8.43;3.83;;;;;;;;;;5490380;26;20227;-81
2024/04/18 03:23:09;;;;;;;11.00;4.17;;;;;;;;;;5490503;26;20239;-82
2024/04/18 03:25:35;;;;;;;8.07;3.53;;;;;;;;;;5490299;26;20575;-82
2024/04/18 03:28:07;;;;;;;8.13;3.73;;;;;;;;;;5490123;26;20295;-80
2024/04/18 03:30:33;;;;;;;8.43;3.40;;;;;;;;;;5490195;26;20227;-80
2024/04/18 03:33:02;;;;;;;8.07;3.23;;;;;;;;;;5489945;26;20281;-81
2024/04/18 03:35:28;;;;;;;9.80;3.23;;;;;;;;;;5490240;26;20269;-82
2024/04/18 03:37:57;;;;;;;7.33;3.17;;;;;;;;;;5489944;26;20265;-81
2024/04/18 03:40:26;;;;;;;8.80;2.97;;;;;;;;;;5489339;26;20236;-81
2024/04/18 03:42:55;;;;;;;5.73;3.20;;;;;;;;;;5490272;26;20266;-81
2024/04/18 03:45:24;;;;;;;11.17;3.10;;;;;;;;;;5489989;26;20227;-80
2024/04/18 03:47:54;;;;;;;9.33;2.63;;;;;;;;;;5489830;26;20227;-80
2024/04/18 03:50:23;;;;;;;8.73;3.07;;;;;;;;;;5489954;26;20285;-81
2024/04/18 03:52:49;;;;;;;6.80;2.97;;;;;;;;;;5490330;26;20227;-82
2024/04/18 03:55:18;;;;;;;8.33;3.30;;;;;;;;;;5489213;26;20303;-81
2024/04/18 03:57:44;;;;;;;7.50;2.90;;;;;;;;;;5490064;26;20300;-81
2024/04/18 04:00:13;;;;;;;8.17;3.10;;;;;;;;;;5489312;26;20286;-82
2024/04/18 04:02:42;;;;;;;6.97;2.80;;;;;;;;;;5489458;26;20740;-81
2024/04/18 04:05:11;;;;;;;12.53;3.00;;;;;;;;;;5489699;26;20234;-81
2024/04/18 04:07:37;;;;;;;9.23;3.00;;;;;;;;;;5489377;26;20257;-81
2024/04/18 04:10:06;;;;;;;7.97;2.90;;;;;;;;;;5489122;26;20870;-81
2024/04/18 04:12:36;;;;;;;7.83;2.57;;;;;;;;;;5489424;26;20269;-81
2024/04/18 04:15:05;;;;;;;12.50;4.33;;;;;;;;;;5489817;26;20235;-81
2024/04/18 04:17:31;;;;;;;7.03;2.70;;;;;;;;;;5489422;26;20256;-80
2024/04/18 04:20:03;;;;;;;6.97;2.60;;;;;;;;;;5489329;26;20269;-80
2024/04/18 04:22:29;;;;;;;9.27;2.73;;;;;;;;;;5489566;26;20575;-81
2024/04/18 04:24:58;;;;;;;8.73;2.83;;;;;;;;;;5488792;26;20296;-80
2024/04/18 04:27:24;;;;;;;7.40;3.10;;;;;;;;;;5488903;26;20252;-81
2024/04/18 04:29:53;;;;;;;7.30;2.40;;;;;;;;;;5489555;26;20234;-81
2024/04/18 04:32:20;;;;;;;8.20;2.77;;;;;;;;;;5488964;26;20723;-81
2024/04/18 04:34:49;;;;;;;8.03;3.20;;;;;;;;;;5489022;26;20274;-80
2024/04/18 04:37:18;;;;;;;8.07;3.07;;;;;;;;;;5488975;26;20274;-80
2024/04/18 04:39:47;;;;;;;7.87;2.90;;;;;;;;;;5489598;26;20276;-81
2024/04/18 04:42:13;;;;;;;6.90;3.10;;;;;;;;;;5489190;26;20227;-81
2024/04/18 04:44:42;;;;;;;7.73;2.97;;;;;;;;;;5488635;26;20238;-82
2024/04/18 04:47:08;;;;;;;7.50;2.30;;;;;;;;;;5489004;26;20276;-81
2024/04/18 04:49:37;;;;;;;8.17;2.73;;;;;;;;;;5489207;26;20231;-80
2024/04/18 04:52:04;;;;;;;7.47;2.70;;;;;;;;;;5488041;26;20234;-80
2024/04/18 04:54:36;;;;;;;6.80;2.73;;;;;;;;;;5489290;26;20315;-82
2024/04/18 04:57:03;;;;;;;10.73;3.20;;;;;;;;;;5488639;26;20273;-81
2024/04/18 04:59:31;;;;;;;6.73;2.67;;;;;;;;;;5489702;26;20333;-81
2024/04/18 05:01:58;;;;;;;9.90;3.07;;;;;;;;;;5489041;26;20260;-82
2024/04/18 05:04:26;;;;;;;10.67;2.70;;;;;;;;;;5488624;26;20272;-81
2024/04/18 05:06:53;;;;;;;8.07;2.80;;;;;;;;;;5488454;26;20263;-81
2024/04/18 05:09:22;;;;;;;6.77;2.93;;;;;;;;;;5488408;26;20822;-79
2024/04/18 05:11:51;;;;;;;5.40;2.60;;;;;;;;;;5489292;26;20226;-82
2024/04/18 05:14:22;;;;;;;8.60;2.57;;;;;;;;;;5485608;26;20242;-82
2024/04/18 05:16:48;;;;;;;5.67;2.43;;;;;;;;;;5489025;26;20235;-82
2024/04/18 05:19:19;;;;;;;9.00;2.97;;;;;;;;;;5489333;26;20272;-82
2024/04/18 05:21:46;;;;;;;12.23;3.00;;;;;;;;;;5488233;26;20649;-80
2024/04/18 05:24:14;;;;;;;11.87;3.10;;;;;;;;;;5488876;26;20293;-81
2024/04/18 05:26:41;;;;;;;7.30;2.60;;;;;;;;;;5488995;26;20226;-82
2024/04/18 05:31:59;;;;;;;5.17;2.60;;;;;;;;;;5489213;26;20273;-81
2024/04/18 05:34:29;;;;;;;8.17;2.93;;;;;;;;;;5488465;26;20257;-81
2024/04/18 05:36:57;;;;;;;7.97;2.80;;;;;;;;;;5487784;26;20230;-83
2024/04/18 05:39:26;;;;;;;7.00;2.70;;;;;;;;;;5488276;26;20230;-81
2024/04/18 05:41:55;;;;;;;9.63;2.90;;;;;;;;;;5488682;26;20615;-81
2024/04/18 05:44:27;;;;;;;6.23;2.87;;;;;;;;;;5488787;26;20227;-81
2024/04/18 05:46:53;;;;;;;7.63;2.80;;;;;;;;;;5488055;26;20265;-79
2024/04/18 05:49:22;;;;;;;11.57;2.60;;;;;;;;;;5487637;26;20282;-80
2024/04/18 05:51:51;;;;;;;15.03;2.73;;;;;;;;;;5488248;26;20224;-76
2024/04/18 05:54:20;;;;;;;9.77;3.33;;;;;;;;;;5488123;26;20319;-79
2024/04/18 05:56:46;;;;;;;7.23;2.87;;;;;;;;;;5487936;26;20223;-79
2024/04/18 05:59:15;;;;;;;6.20;2.53;;;;;;;;;;5488070;26;20273;-79
2024/04/18 06:01:46;;;;;;;5.40;2.23;;;;;;;;;;5488842;26;20223;-79
2024/04/18 06:04:15;;;;;;;6.00;2.70;;;;;;;;;;5487753;26;20707;-79
2024/04/18 06:06:44;;;;;;;5.90;2.57;;;;;;;;;;5488256;26;20575;-79
2024/04/18 06:09:13;;;;;;;5.03;2.80;;;;;;;;;;5488285;26;20262;-79
2024/04/18 06:11:45;;;;;;;5.90;2.70;;;;;;;;;;5488063;26;20220;-79
2024/04/18 06:14:14;;;;;;;7.87;2.47;;;;;;;;;;5487782;26;20277;-80
2024/04/18 06:16:43;;;;;;;6.47;2.53;;;;;;;;;;5487798;26;20270;-79
2024/04/18 06:19:14;;;;;;;8.27;2.37;;;;;;;;;;5487633;26;20254;-79
2024/04/18 06:21:43;;;;;;;6.87;2.17;;;;;;;;;;5488250;26;20219;-79
2024/04/18 06:24:12;;;;;;;4.93;2.00;;;;;;;;;;5488536;26;20756;-79
2024/04/18 06:26:41;;;;;;;4.23;2.20;;;;;;;;;;5487927;26;20219;-80
2024/04/18 06:29:10;;;;;;;6.67;2.23;;;;;;;;;;5488210;26;20270;-80
2024/04/18 06:31:39;;;;;;;7.00;2.00;;;;;;;;;;5488123;26;20270;-80
2024/04/18 06:34:08;;;;;;;5.77;2.00;;;;;;;;;;5487854;26;20223;-79
2024/04/18 06:36:40;;;;;;;3.87;2.20;;;;;;;;;;5487943;26;20711;-80
2024/04/18 06:39:09;;;;;;;6.43;2.10;;;;;;;;;;5487910;26;20251;-79
2024/04/18 06:41:38;;;;;;;4.37;2.10;;;;;;;;;;5487418;26;20247;-80
2024/04/18 06:44:06;;;;;;;6.77;2.23;;;;;;;;;;5487714;26;20219;-80
2024/04/18 06:46:35;;;;;;;4.73;1.77;;;;;;;;;;5488204;26;20234;-80
2024/04/18 06:49:04;;;;;;;6.40;2.17;;;;;;;;;;5487329;26;20223;-79
2024/04/18 06:51:33;;;;;;;4.37;1.80;;;;;;;;;;5487768;26;20266;-79
2024/04/18 06:54:05;;;;;;;5.30;2.17;;;;;;;;;;5488406;26;20274;-80
2024/04/18 06:56:33;;;;;;;3.93;1.67;;;;;;;;;;5487492;26;20223;-81
2024/04/18 06:59:02;;;;;;;4.60;1.67;;;;;;;;;;5487806;26;20223;-80
2024/04/18 07:01:31;;;;;;;6.80;1.92;;;;;;;;;;5487459;26;20269;-80
2024/04/18 07:04:00;;;;;;;5.95;2.08;;;;;;;;;;5487208;26;20223;-80
2024/04/18 07:06:29;;;;;;;5.07;1.70;;;;;;;;;;5487946;26;20223;-80
2024/04/18 07:08:55;;;;;;;3.90;1.60;;;;;;;;;;5487497;26;20227;-81
2024/04/18 07:11:26;;;;;;;3.72;1.60;;;;;;;;;;5487461;26;20278;-80
2024/04/18 07:13:55;;;;;;;4.18;1.77;;;;;;;;;;5487047;26;20227;-79
2024/04/18 07:16:24;;;;;;;4.78;1.70;;;;;;;;;;5487611;26;20223;-79
2024/04/18 07:18:53;;;;;;;6.55;1.95;;;;;;;;;;5487440;26;20234;-80
2024/04/18 07:21:19;;;;;;;6.30;1.50;;;;;;;;;;5487293;26;20273;-80
2024/04/18 07:23:48;;;;;;;5.18;1.60;;;;;;;;;;5487158;26;20234;-80
2024/04/18 07:26:17;;;;;;;4.40;1.50;;;;;;;;;;5487539;26;20351;-80
2024/04/18 07:28:49;;;;;;;4.88;1.52;;;;;;;;;;5486868;26;20219;-79
2024/04/18 07:31:17;;;;;;;3.97;1.40;;;;;;;;;;5486845;26;20275;-79
2024/04/18 07:33:47;;;;;;;4.47;1.67;;;;;;;;;;5487411;26;20273;-80
2024/04/18 07:36:21;;;;;;;4.90;1.60;;;;;;;;;;5487197;26;20613;-80
2024/04/18 07:38:50;;;;;;;4.45;1.40;;;;;;;;;;5487192;26;20258;-80
2024/04/18 07:41:19;;;;;;;3.90;1.60;;;;;;;;;;5486752;26;20343;-80
2024/04/18 07:43:51;;;;;;;4.43;1.50;;;;;;;;;;5486885;26;20732;-80
2024/04/18 07:46:20;;;;;;;4.25;1.60;;;;;;;;;;5486697;26;20227;-81
2024/04/18 07:48:49;;;;;;;3.55;1.48;;;;;;;;;;5486573;26;20223;-81
2024/04/18 07:51:17;;;;;;;5.60;1.77;;;;;;;;;;5486969;26;20238;-79
2024/04/18 07:53:46;;;;;;;4.93;1.77;;;;;;;;;;5486530;26;20704;-80
2024/04/18 07:56:15;;;;;;;4.50;1.90;;;;;;;;;;5488469;26;20266;-81
2024/04/18 07:58:44;;;;;;;4.75;1.70;;;;;;;;;;5490168;26;20215;-80
2024/04/18 08:01:16;;;;;;;4.18;2.00;;;;;;;;;;5490269;26;20223;-79
2024/04/18 08:03:44;;;;;;;5.53;1.60;;;;;;;;;;5490138;26;20755;-80
2024/04/18 08:06:13;;;;;;;3.83;1.50;;;;;;;;;;5490281;26;20262;-80
2024/04/18 08:08:42;;;;;;;3.22;1.77;;;;;;;;;;5489762;26;20730;-80
2024/04/18 08:11:11;;;;;;;3.58;1.65;;;;;;;;;;5490610;26;20227;-80
2024/04/18 08:13:40;;;;;;;2.05;1.40;;;;;;;;;;5489819;26;20972;-79
2024/04/18 08:16:09;;;;;;;4.07;1.67;;;;;;;;;;5489751;26;20278;-79
2024/04/18 08:18:41;;;;;;;2.95;1.75;;;;;;;;;;5489939;26;20266;-81
2024/04/18 08:21:09;;;;;;;3.90;1.25;;;;;;;;;;5489952;26;20212;-79
2024/04/18 08:23:39;;;;;;;3.67;1.23;;;;;;;;;;5490382;26;20212;-80
2024/04/18 08:26:07;;;;;;;4.07;1.10;;;;;;;;;;5489816;26;20343;-80
2024/04/18 08:28:36;;;;;;;4.28;1.30;;;;;;;;;;5490106;26;20604;-80
2024/04/18 08:31:05;;;;;;;4.60;1.50;;;;;;;;;;5490092;26;20219;-80
2024/04/18 08:33:34;;;;;;;3.90;1.20;;;;;;;;;;5489845;26;20223;-80
2024/04/18 08:36:05;;;;;;;3.58;1.00;;;;;;;;;;5489999;26;20581;-80
2024/04/18 08:38:34;;;;;;;4.00;1.25;;;;;;;;;;5489550;26;20602;-80
2024/04/18 08:41:10;;;;;;;3.60;1.00;;;;;;;;;;5489928;26;20235;-80
2024/04/18 08:43:39;;;;;;;2.92;1.13;;;;;;;;;;5489449;26;20703;-80
2024/04/18 08:46:10;;;;;;;2.25;0.90;;;;;;;;;;5489669;26;20223;-81
2024/04/18 08:48:39;;;;;;;5.70;1.58;;;;;;;;;;5489477;26;20223;-81
2024/04/18 08:51:11;;;;;;;1.85;1.08;;;;;;;;;;5489909;26;20223;-82
2024/04/18 08:53:40;;;;;;;2.15;1.20;;;;;;;;;;5489639;26;20223;-80
2024/04/18 08:56:11;;;;;;;2.28;1.08;;;;;;;;;;5490181;26;20239;-80
2024/04/18 08:58:40;;;;;;;2.42;0.98;;;;;;;;;;5489261;26;20216;-81
2024/04/18 09:01:09;;;;;;;3.30;1.00;;;;;;;;;;5488872;26;20231;-81
2024/04/18 09:03:38;;;;;;;1.92;1.08;;;;;;;;;;5104687;26;9999801;-80
2024/04/18 09:06:09;;;;;;;2.25;1.25;;;;;;;;;;5484290;26;20558;-79
2024/04/18 09:08:41;;;;;;;3.22;1.50;;;;;;;;;;5485115;26;20283;-80
2024/04/18 09:11:10;;;;;;;5.25;1.30;;;;;;;;;;5484387;26;20236;-80
2024/04/18 09:13:39;;;;;;;2.60;1.23;;;;;;;;;;5474726;26;20287;-79
2024/04/18 09:16:08;;;;;;;2.50;1.40;;;;;;;;;;5450808;26;20240;-81
2024/04/18 09:18:38;;;;;;;4.78;1.50;;;;;;;;;;5484348;26;20258;-81
2024/04/18 09:21:10;;;;;;;4.18;1.50;;;;;;;;;;5484868;26;20265;-81
2024/04/18 09:23:42;;;;;;;7.32;1.88;;;;;;;;;;5484420;26;20227;-80
2024/04/18 09:26:11;;;;;;;3.47;1.20;;;;;;;;;;5483699;26;20214;-80
2024/04/18 09:28:41;;;;;;;5.53;1.52;;;;;;;;;;5484316;26;20223;-80
2024/04/18 09:31:09;;;;;;;3.47;1.17;;;;;;;;;;5484270;26;20290;-80
2024/04/18 09:33:39;;;;;;;3.55;1.20;;;;;;;;;;5484332;26;20258;-80
2024/04/18 09:36:08;;;;;;;3.30;1.33;;;;;;;;;;5483945;26;20249;-80
2024/04/18 09:38:37;;;;;;;3.10;1.27;;;;;;;;;;5447642;26;20224;-82
2024/04/18 09:41:12;;;;;;;3.90;1.15;;;;;;;;;;5447570;26;20600;-81
2024/04/18 09:43:44;;;;;;;5.70;1.15;;;;;;;;;;5447629;26;20228;-81
2024/04/18 09:46:14;;;;;;;2.08;1.00;;;;;;;;;;5449295;26;21076;-81
2024/04/18 09:48:43;;;;;;;3.63;1.00;;;;;;;;;;5484160;26;20258;-81
2024/04/18 09:51:12;;;;;;;2.08;1.00;;;;;;;;;;5482411;26;20640;-81
2024/04/18 09:53:42;;;;;;;3.70;1.40;;;;;;;;;;5483842;26;20583;-82
2024/04/18 09:56:13;;;;;;;1.90;1.00;;;;;;;;;;5483422;26;20644;-83
2024/04/18 09:58:42;;;;;;;2.58;0.82;;;;;;;;;;5483931;26;20227;-81
2024/04/18 10:01:12;;;;;;;3.25;1.17;;;;;;;;;;5484338;26;20762;-79
2024/04/18 10:03:41;;;;;;;1.90;0.90;;;;;;;;;;5483109;26;20290;-81
2024/04/18 10:06:11;;;;;;;3.15;1.00;;;;;;;;;;5483767;26;20239;-81
2024/04/18 10:08:42;;;;;;;2.38;0.90;;;;;;;;;;5483638;26;20269;-80
2024/04/18 10:11:14;;;;;;;4.05;1.25;;;;;;;;;;5483601;26;20223;-81
2024/04/18 10:13:43;;;;;;;4.13;1.20;;;;;;;;;;5472469;26;20748;-82
2024/04/18 10:16:13;;;;;;;2.40;1.08;;;;;;;;;;5447270;26;20342;-82
2024/04/18 10:18:44;;;;;;;2.03;0.98;;;;;;;;;;5448747;26;20220;-83
2024/04/18 10:21:15;;;;;;;2.28;1.10;;;;;;;;;;5457270;26;20235;-81
2024/04/18 10:23:50;;;;;;;2.40;1.08;;;;;;;;;;5483095;26;20237;-83
2024/04/18 10:26:22;;;;;;;2.13;0.95;;;;;;;;;;5487237;26;20253;-81
2024/04/18 10:28:52;;;;;;;2.08;1.20;;;;;;;;;;5487368;26;20231;-83
2024/04/18 10:31:21;;;;;;;2.30;1.15;;;;;;;;;;5487519;26;20273;-82
2024/04/18 10:33:50;;;;;;;2.42;0.80;;;;;;;;;;5487471;26;20227;-82
2024/04/18 10:36:19;;;;;;;3.05;1.10;;;;;;;;;;5486939;26;20231;-82
2024/04/18 10:38:48;;;;;;;2.08;0.80;;;;;;;;;;5487107;26;20282;-80
2024/04/18 10:41:18;;;;;;;1.38;0.80;;;;;;;;;;5485672;26;20278;-81
2024/04/18 10:43:48;;;;;;;3.10;1.10;;;;;;;;;;5486837;26;20235;-82
2024/04/18 10:46:18;;;;;;;1.45;0.95;;;;;;;;;;5487274;26;20716;-82
2024/04/18 10:48:47;;;;;;;3.50;1.30;;;;;;;;;;5471776;26;20231;-83
2024/04/18 10:51:16;;;;;;;2.67;1.23;;;;;;;;;;5487081;26;20691;-83
2024/04/18 10:53:45;;;;;;;2.92;0.98;;;;;;;;;;5487110;26;20223;-82
2024/04/18 10:56:13;;;;;;;2.45;1.10;;;;;;;;;;5487143;26;20695;-83
2024/04/18 10:58:42;;;;;;;1.70;0.90;;;;;;;;;;5487907;26;20227;-83
2024/04/18 11:01:21;;;;;;;3.75;1.00;;;;;;;;;;5487753;26;20938;-82
2024/04/18 11:03:53;;;;;;;1.63;0.90;;;;;;;;;;5487145;26;20274;-82
2024/04/18 11:06:22;;;;;;;1.90;0.80;;;;;;;;;;5487477;26;20759;-82
2024/04/18 11:08:52;;;;;;;3.30;0.90;;;;;;;;;;5486888;26;20258;-83
2024/04/18 11:11:24;;;;;;;2.15;1.10;;;;;;;;;;5487509;26;20352;-83
2024/04/18 11:13:53;;;;;;;1.30;0.80;;;;;;;;;;5487068;26;20274;-82
2024/04/18 11:16:26;;;;;;;2.40;1.00;;;;;;;;;;5487388;26;20275;-81
2024/04/18 11:18:55;;;;;;;3.20;1.05;;;;;;;;;;5487054;26;20552;-82
2024/04/18 11:21:24;;;;;;;3.83;1.20;;;;;;;;;;5486774;26;20223;-83
2024/04/18 11:23:58;;;;;;;16.23;2.95;;;;;;;;;;5486985;26;20274;-82
2024/04/18 11:26:28;;;;;;;5.68;2.05;;;;;;;;;;5487092;26;20243;-82
2024/04/18 11:28:58;;;;;;;3.78;1.20;;;;;;;;;;5487284;26;20219;-82
2024/04/18 11:31:30;;;;;;;2.88;1.30;;;;;;;;;;5489660;26;20223;-82
2024/04/18 11:33:59;;;;;;;2.78;1.20;;;;;;;;;;5490693;26;20274;-82
2024/04/18 11:36:28;;;;;;;5.10;1.58;;;;;;;;;;5490711;26;20223;-82
2024/04/18 11:39:02;;;;;;;6.05;1.40;;;;;;;;;;5490228;26;20215;-83
2024/04/18 11:41:32;;;;;;;2.30;1.25;;;;;;;;;;5490140;26;20306;-82
2024/04/18 11:44:02;;;;;;;4.85;1.30;;;;;;;;;;5490580;26;20287;-82
2024/04/18 11:46:33;;;;;;;2.00;1.05;;;;;;;;;;5490493;26;20771;-82
2024/04/18 11:49:02;;;;;;;3.47;1.25;;;;;;;;;;5490832;26;20270;-83
2024/04/18 11:51:31;;;;;;;3.85;1.23;;;;;;;;;;5489827;26;20258;-82
2024/04/18 11:54:00;;;;;;;2.90;1.15;;;;;;;;;;5489646;26;20274;-82
2024/04/18 11:56:29;;;;;;;3.97;1.50;;;;;;;;;;5490594;26;20566;-82
2024/04/18 11:58:59;;;;;;;2.58;1.20;;;;;;;;;;5490452;26;20224;-83
2024/04/18 12:01:28;;;;;;;2.92;1.50;;;;;;;;;;5490093;26;20223;-82
2024/04/18 12:04:00;;;;;;;5.57;1.63;;;;;;;;;;5490023;26;20716;-82
2024/04/18 12:06:29;;;;;;;2.63;1.55;;;;;;;;;;5488252;26;20258;-83
2024/04/18 12:08:57;;;;;;;3.17;1.48;;;;;;;;;;5490135;26;20747;-81
2024/04/18 12:11:26;;;;;;;3.35;1.30;;;;;;;;;;5490011;26;20715;-82
2024/04/18 12:13:55;;;;;;;2.97;1.40;;;;;;;;;;5489889;26;20277;-82
2024/04/18 12:16:21;;;;;;;2.97;1.52;;;;;;;;;;5490031;26;20223;-81
2024/04/18 12:18:51;;;;;;;2.55;1.30;;;;;;;;;;5490398;26;20231;-82
2024/04/18 12:21:22;;;;;;;3.63;1.40;;;;;;;;;;5489411;26;20266;-82
2024/04/18 12:23:51;;;;;;;3.70;1.60;;;;;;;;;;5489997;26;20318;-82
2024/04/18 12:26:21;;;;;;;3.13;1.65;;;;;;;;;;5490606;26;20227;-82
2024/04/18 12:28:50;;;;;;;2.20;1.50;;;;;;;;;;5488077;26;20235;-83
2024/04/18 12:31:18;;;;;;;2.83;1.27;;;;;;;;;;5489585;26;20266;-82
2024/04/18 12:33:47;;;;;;;3.95;1.40;;;;;;;;;;5489655;26;20628;-81
2024/04/18 12:36:17;;;;;;;3.63;1.40;;;;;;;;;;5489776;26;20254;-82
2024/04/18 12:38:48;;;;;;;2.38;1.38;;;;;;;;;;5489541;26;20223;-82
2024/04/18 12:41:18;;;;;;;2.53;1.30;;;;;;;;;;5489066;26;20282;-82
2024/04/18 12:43:47;;;;;;;3.60;1.33;;;;;;;;;;5489485;26;20642;-83
2024/04/18 12:46:16;;;;;;;2.13;1.23;;;;;;;;;;5490320;26;20223;-82
2024/04/18 12:48:44;;;;;;;3.47;1.27;;;;;;;;;;5489276;26;20274;-82
2024/04/18 12:51:14;;;;;;;2.75;1.00;;;;;;;;;;5489175;26;20257;-82
2024/04/18 12:53:42;;;;;;;1.48;1.10;;;;;;;;;;5489788;26;20227;-81
2024/04/18 12:56:14;;;;;;;2.83;1.00;;;;;;;;;;5489544;26;20220;-83
2024/04/18 12:58:43;;;;;;;2.60;1.20;;;;;;;;;;5489423;26;20223;-82
2024/04/18 13:01:12;;;;;;;2.00;1.00;;;;;;;;;;5489348;26;20274;-83
2024/04/18 13:03:41;;;;;;;1.95;0.95;;;;;;;;;;5489487;26;20223;-82
2024/04/18 13:06:10;;;;;;;3.03;1.20;;;;;;;;;;5488728;26;20227;-82
2024/04/18 13:08:39;;;;;;;3.75;1.20;;;;;;;;;;5489769;26;20270;-82
2024/04/18 13:11:07;;;;;;;2.63;0.90;;;;;;;;;;5489220;26;20355;-82
2024/04/18 13:13:39;;;;;;;3.83;1.10;;;;;;;;;;5480871;26;20225;-82
2024/04/18 13:16:08;;;;;;;3.28;1.10;;;;;;;;;;5452944;26;20259;-82
2024/04/18 13:18:37;;;;;;;2.42;1.20;;;;;;;;;;5452723;26;20720;-83
2024/04/18 13:21:06;;;;;;;2.75;1.27;;;;;;;;;;5452674;26;20227;-82
2024/04/18 13:23:36;;;;;;;2.25;1.38;;;;;;;;;;5452548;26;20266;-82
2024/04/18 13:26:05;;;;;;;2.97;1.00;;;;;;;;;;5452754;26;20263;-82
2024/04/18 13:28:34;;;;;;;3.00;1.10;;;;;;;;;;5452521;26;20228;-81
2024/04/18 13:31:03;;;;;;;1.75;1.13;;;;;;;;;;5452491;26;20224;-82
2024/04/18 13:33:32;;;;;;;4.60;1.30;;;;;;;;;;5451939;26;20232;-81
2024/04/18 13:36:01;;;;;;;2.40;1.30;;;;;;;;;;5452822;26;20239;-83
2024/04/18 13:38:30;;;;;;;2.88;1.30;;;;;;;;;;5453315;26;20225;-81
2024/04/18 13:41:01;;;;;;;3.33;1.58;;;;;;;;;;5452609;26;20240;-81
2024/04/18 13:43:30;;;;;;;7.05;1.80;;;;;;;;;;5452375;26;20336;-82
2024/04/18 13:45:58;;;;;;;4.53;1.40;;;;;;;;;;5452381;26;20224;-83
2024/04/18 13:48:30;;;;;;;2.92;1.38;;;;;;;;;;5452386;26;20224;-83
2024/04/18 13:51:00;;;;;;;3.22;1.20;;;;;;;;;;5452192;26;20278;-81
2024/04/18 13:53:29;;;;;;;1.67;1.10;;;;;;;;;;5450697;26;20725;-82
2024/04/18 13:55:58;;;;;;;1.67;1.00;;;;;;;;;;5452175;26;20224;-83
2024/04/18 13:58:24;;;;;;;1.60;1.13;;;;;;;;;;5452316;26;20716;-82
2024/04/18 14:00:54;;;;;;;1.52;1.10;;;;;;;;;;5452252;26;20277;-81
2024/04/18 14:03:23;;;;;;;2.22;0.90;;;;;;;;;;5467571;26;20231;-82
2024/04/18 14:05:54;;;;;;;2.50;1.08;;;;;;;;;;5488127;26;20588;-82
2024/04/18 14:08:23;;;;;;;2.50;0.93;;;;;;;;;;5488914;26;20728;-83
2024/04/18 14:10:52;;;;;;;1.65;1.00;;;;;;;;;;5488115;26;20219;-82
2024/04/18 14:13:22;;;;;;;2.85;1.10;;;;;;;;;;5487618;26;20924;-82
2024/04/18 14:18:48;;;;;;;2.78;1.20;;;;;;;;;;5488279;26;20707;-82
2024/04/18 14:18:49;;;;;;;2.53;1.00;;;;;;;;;;5488103;26;20261;-81
2024/04/18 14:21:21;;;;;;;3.05;1.08;;;;;;;;;;5488358;26;20273;-81
2024/04/18 14:23:50;;;;;;;2.20;1.20;;;;;;;;;;5487768;26;20223;-82
2024/04/18 14:26:19;;;;;;;2.35;1.20;;;;;;;;;;5488242;26;20263;-82
2024/04/18 14:28:48;;;;;;;1.98;0.93;;;;;;;;;;5488280;26;20215;-82
2024/04/18 14:31:17;;;;;;;3.33;1.20;;;;;;;;;;5488243;26;20223;-84
2024/04/18 14:33:46;;;;;;;2.05;1.13;;;;;;;;;;5487673;26;20270;-83
2024/04/18 14:36:14;;;;;;;8.23;1.70;;;;;;;;;;5487833;26;20708;-83
2024/04/18 14:38:46;;;;;;;3.78;1.45;;;;;;;;;;5487981;26;20222;-82
2024/04/18 14:41:15;;;;;;;2.25;1.20;;;;;;;;;;5487992;26;20265;-82
2024/04/18 14:43:44;;;;;;;2.55;1.15;;;;;;;;;;5488361;26;20222;-83
2024/04/18 14:46:12;;;;;;;2.03;0.90;;;;;;;;;;5487529;26;20227;-82
2024/04/18 14:48:41;;;;;;;4.60;1.10;;;;;;;;;;5487937;26;20223;-82
2024/04/18 14:51:10;;;;;;;2.97;1.10;;;;;;;;;;5488082;26;20223;-82
2024/04/18 14:53:39;;;;;;;1.88;1.15;;;;;;;;;;5487578;26;20227;-83
2024/04/18 14:56:11;;;;;;;1.63;0.90;;;;;;;;;;5487906;26;20274;-82